sensor_id;sensor_type;location;lat;lon;timestamp;P1;durP1;ratioP1;P2;durP2;ratioP2
51312;SDS011;37397;53.226;10.400;2024-01-11T00:01:46;37.70;;;20.88;;
51312;SDS011;37397;53.226;10.400;2024-01-11T00:04:14;38.40;;;20.50;;
51312;SDS011;37397;53.226;10.400;2024-01-11T00:06:44;43.17;;;21.70;;
51312;SDS011;37397;53.226;10.400;2024-01-11T00:09:11;41.05;;;21.77;;
51312;SDS011;37397;53.226;10.400;2024-01-11T00:11:38;37.30;;;19.90;;
51312;SDS011;37397;53.226;10.400;2024-01-11T00:14:04;39.88;;;21.20;;
51312;SDS011;37397;53.226;10.400;2024-01-11T00:16:31;36.45;;;20.33;;
51312;SDS011;37397;53.226;10.400;2024-01-11T00:18:57;37.03;;;20.30;;
51312;SDS011;37397;53.226;10.400;2024-01-11T00:21:24;38.97;;;21.02;;
51312;SDS011;37397;53.226;10.400;2024-01-11T00:23:51;39.90;;;21.30;;
51312;SDS011;37397;53.226;10.400;2024-01-11T00:26:17;36.33;;;20.10;;
51312;SDS011;37397;53.226;10.400;2024-01-11T00:28:44;36.17;;;20.05;;
51312;SDS011;37397;53.226;10.400;2024-01-11T00:31:11;34.03;;;20.05;;
51312;SDS011;37397;53.226;10.400;2024-01-11T00:33:38;36.65;;;20.80;;
51312;SDS011;37397;53.226;10.400;2024-01-11T00:36:05;35.22;;;20.27;;
51312;SDS011;37397;53.226;10.400;2024-01-11T00:38:32;34.83;;;20.65;;
51312;SDS011;37397;53.226;10.400;2024-01-11T00:40:58;39.30;;;22.10;;
51312;SDS011;37397;53.226;10.400;2024-01-11T00:43:25;35.63;;;20.23;;
51312;SDS011;37397;53.226;10.400;2024-01-11T00:45:51;39.95;;;21.35;;
51312;SDS011;37397;53.226;10.400;2024-01-11T00:48:18;37.50;;;21.05;;
51312;SDS011;37397;53.226;10.400;2024-01-11T00:50:45;36.83;;;21.20;;
51312;SDS011;37397;53.226;10.400;2024-01-11T00:53:11;37.97;;;21.23;;
51312;SDS011;37397;53.226;10.400;2024-01-11T00:55:40;36.15;;;20.50;;
51312;SDS011;37397;53.226;10.400;2024-01-11T00:58:07;39.40;;;22.20;;
51312;SDS011;37397;53.226;10.400;2024-01-11T01:00:34;38.95;;;21.30;;
51312;SDS011;37397;53.226;10.400;2024-01-11T01:03:00;36.15;;;21.33;;
51312;SDS011;37397;53.226;10.400;2024-01-11T01:05:27;35.75;;;19.92;;
51312;SDS011;37397;53.226;10.400;2024-01-11T01:07:54;37.13;;;20.75;;
51312;SDS011;37397;53.226;10.400;2024-01-11T01:10:21;39.13;;;21.48;;
51312;SDS011;37397;53.226;10.400;2024-01-11T01:12:47;34.22;;;20.02;;
51312;SDS011;37397;53.226;10.400;2024-01-11T01:15:14;36.13;;;20.05;;
51312;SDS011;37397;53.226;10.400;2024-01-11T01:17:41;34.97;;;19.33;;
51312;SDS011;37397;53.226;10.400;2024-01-11T01:20:08;33.13;;;20.30;;
51312;SDS011;37397;53.226;10.400;2024-01-11T01:22:35;31.45;;;18.92;;
51312;SDS011;37397;53.226;10.400;2024-01-11T01:25:01;33.45;;;19.73;;
51312;SDS011;37397;53.226;10.400;2024-01-11T01:27:28;34.05;;;18.58;;
51312;SDS011;37397;53.226;10.400;2024-01-11T01:29:55;32.33;;;18.52;;
51312;SDS011;37397;53.226;10.400;2024-01-11T01:32:21;30.67;;;17.95;;
51312;SDS011;37397;53.226;10.400;2024-01-11T01:34:48;33.80;;;18.75;;
51312;SDS011;37397;53.226;10.400;2024-01-11T01:37:15;32.33;;;18.52;;
51312;SDS011;37397;53.226;10.400;2024-01-11T01:39:41;33.78;;;18.42;;
51312;SDS011;37397;53.226;10.400;2024-01-11T01:42:08;31.73;;;19.45;;
51312;SDS011;37397;53.226;10.400;2024-01-11T01:44:35;32.78;;;17.98;;
51312;SDS011;37397;53.226;10.400;2024-01-11T01:47:02;31.70;;;17.98;;
51312;SDS011;37397;53.226;10.400;2024-01-11T01:49:32;30.83;;;17.33;;
51312;SDS011;37397;53.226;10.400;2024-01-11T01:51:58;32.97;;;18.15;;
51312;SDS011;37397;53.226;10.400;2024-01-11T01:54:25;31.25;;;17.23;;
51312;SDS011;37397;53.226;10.400;2024-01-11T01:56:53;32.20;;;18.17;;
51312;SDS011;37397;53.226;10.400;2024-01-11T01:59:20;33.83;;;19.17;;
51312;SDS011;37397;53.226;10.400;2024-01-11T02:01:49;32.45;;;18.92;;
51312;SDS011;37397;53.226;10.400;2024-01-11T02:04:15;31.08;;;18.85;;
51312;SDS011;37397;53.226;10.400;2024-01-11T02:06:43;32.63;;;18.83;;
51312;SDS011;37397;53.226;10.400;2024-01-11T02:09:11;35.80;;;20.00;;
51312;SDS011;37397;53.226;10.400;2024-01-11T02:11:41;35.13;;;19.40;;
51312;SDS011;37397;53.226;10.400;2024-01-11T02:14:07;33.90;;;19.30;;
51312;SDS011;37397;53.226;10.400;2024-01-11T02:16:36;35.05;;;19.35;;
51312;SDS011;37397;53.226;10.400;2024-01-11T02:19:04;38.80;;;20.20;;
51312;SDS011;37397;53.226;10.400;2024-01-11T02:21:33;34.85;;;19.38;;
51312;SDS011;37397;53.226;10.400;2024-01-11T02:24:03;32.47;;;19.10;;
51312;SDS011;37397;53.226;10.400;2024-01-11T02:26:32;37.53;;;20.27;;
51312;SDS011;37397;53.226;10.400;2024-01-11T02:28:59;37.95;;;20.13;;
51312;SDS011;37397;53.226;10.400;2024-01-11T02:31:26;35.70;;;21.23;;
51312;SDS011;37397;53.226;10.400;2024-01-11T02:33:53;36.72;;;20.80;;
51312;SDS011;37397;53.226;10.400;2024-01-11T02:36:22;40.97;;;22.25;;
51312;SDS011;37397;53.226;10.400;2024-01-11T02:38:49;39.63;;;21.50;;
51312;SDS011;37397;53.226;10.400;2024-01-11T02:41:18;38.17;;;20.80;;
51312;SDS011;37397;53.226;10.400;2024-01-11T02:43:48;34.42;;;20.45;;
51312;SDS011;37397;53.226;10.400;2024-01-11T02:46:15;36.95;;;20.98;;
51312;SDS011;37397;53.226;10.400;2024-01-11T02:48:43;38.63;;;20.80;;
51312;SDS011;37397;53.226;10.400;2024-01-11T02:51:09;37.13;;;20.33;;
51312;SDS011;37397;53.226;10.400;2024-01-11T02:53:36;36.65;;;20.58;;
51312;SDS011;37397;53.226;10.400;2024-01-11T02:56:03;34.38;;;19.30;;
51312;SDS011;37397;53.226;10.400;2024-01-11T02:58:29;39.03;;;21.27;;
51312;SDS011;37397;53.226;10.400;2024-01-11T03:00:56;38.05;;;21.20;;
51312;SDS011;37397;53.226;10.400;2024-01-11T03:03:22;36.30;;;20.17;;
51312;SDS011;37397;53.226;10.400;2024-01-11T03:05:49;37.40;;;21.30;;
51312;SDS011;37397;53.226;10.400;2024-01-11T03:08:16;37.60;;;20.95;;
51312;SDS011;37397;53.226;10.400;2024-01-11T03:10:42;40.08;;;21.52;;
51312;SDS011;37397;53.226;10.400;2024-01-11T03:13:09;34.65;;;19.27;;
51312;SDS011;37397;53.226;10.400;2024-01-11T03:15:35;38.92;;;20.65;;
51312;SDS011;37397;53.226;10.400;2024-01-11T03:18:02;34.92;;;20.15;;
51312;SDS011;37397;53.226;10.400;2024-01-11T03:20:29;36.03;;;20.45;;
51312;SDS011;37397;53.226;10.400;2024-01-11T03:22:56;39.75;;;21.67;;
51312;SDS011;37397;53.226;10.400;2024-01-11T03:25:22;37.35;;;21.08;;
51312;SDS011;37397;53.226;10.400;2024-01-11T03:27:49;38.28;;;21.02;;
51312;SDS011;37397;53.226;10.400;2024-01-11T03:30:15;39.10;;;22.40;;
51312;SDS011;37397;53.226;10.400;2024-01-11T03:32:43;38.72;;;21.92;;
51312;SDS011;37397;53.226;10.400;2024-01-11T03:35:10;38.58;;;21.30;;
51312;SDS011;37397;53.226;10.400;2024-01-11T03:37:37;40.42;;;22.60;;
51312;SDS011;37397;53.226;10.400;2024-01-11T03:40:03;37.78;;;21.85;;
51312;SDS011;37397;53.226;10.400;2024-01-11T03:42:30;37.38;;;20.60;;
51312;SDS011;37397;53.226;10.400;2024-01-11T03:44:57;38.35;;;21.30;;
51312;SDS011;37397;53.226;10.400;2024-01-11T03:47:24;42.05;;;22.15;;
51312;SDS011;37397;53.226;10.400;2024-01-11T03:49:50;39.45;;;21.98;;
51312;SDS011;37397;53.226;10.400;2024-01-11T03:52:17;38.33;;;22.23;;
51312;SDS011;37397;53.226;10.400;2024-01-11T03:54:43;37.28;;;21.23;;
51312;SDS011;37397;53.226;10.400;2024-01-11T03:57:10;40.85;;;22.25;;
51312;SDS011;37397;53.226;10.400;2024-01-11T03:59:37;43.50;;;23.30;;
51312;SDS011;37397;53.226;10.400;2024-01-11T04:02:03;41.72;;;22.73;;
51312;SDS011;37397;53.226;10.400;2024-01-11T04:04:30;40.45;;;22.88;;
51312;SDS011;37397;53.226;10.400;2024-01-11T04:06:57;44.85;;;23.75;;
51312;SDS011;37397;53.226;10.400;2024-01-11T04:09:23;44.38;;;23.40;;
51312;SDS011;37397;53.226;10.400;2024-01-11T04:11:50;43.28;;;23.45;;
51312;SDS011;37397;53.226;10.400;2024-01-11T04:14:16;44.38;;;23.25;;
51312;SDS011;37397;53.226;10.400;2024-01-11T04:16:43;42.55;;;23.35;;
51312;SDS011;37397;53.226;10.400;2024-01-11T04:19:10;45.25;;;24.23;;
51312;SDS011;37397;53.226;10.400;2024-01-11T04:21:37;44.78;;;23.90;;
51312;SDS011;37397;53.226;10.400;2024-01-11T04:24:05;42.70;;;23.08;;
51312;SDS011;37397;53.226;10.400;2024-01-11T04:26:32;43.60;;;24.30;;
51312;SDS011;37397;53.226;10.400;2024-01-11T04:28:59;45.95;;;22.98;;
51312;SDS011;37397;53.226;10.400;2024-01-11T04:31:26;42.88;;;22.63;;
51312;SDS011;37397;53.226;10.400;2024-01-11T04:33:53;45.92;;;24.10;;
51312;SDS011;37397;53.226;10.400;2024-01-11T04:36:20;45.13;;;24.05;;
51312;SDS011;37397;53.226;10.400;2024-01-11T04:38:47;46.25;;;24.67;;
51312;SDS011;37397;53.226;10.400;2024-01-11T04:41:14;46.13;;;24.77;;
51312;SDS011;37397;53.226;10.400;2024-01-11T04:43:42;47.92;;;24.63;;
51312;SDS011;37397;53.226;10.400;2024-01-11T04:46:15;46.45;;;23.77;;
51312;SDS011;37397;53.226;10.400;2024-01-11T04:48:45;47.60;;;24.70;;
51312;SDS011;37397;53.226;10.400;2024-01-11T04:51:15;51.35;;;25.23;;
51312;SDS011;37397;53.226;10.400;2024-01-11T04:53:43;48.22;;;24.65;;
51312;SDS011;37397;53.226;10.400;2024-01-11T04:56:11;51.97;;;25.58;;
51312;SDS011;37397;53.226;10.400;2024-01-11T04:58:39;52.70;;;25.02;;
51312;SDS011;37397;53.226;10.400;2024-01-11T05:01:07;48.80;;;25.63;;
51312;SDS011;37397;53.226;10.400;2024-01-11T05:03:41;50.25;;;25.77;;
51312;SDS011;37397;53.226;10.400;2024-01-11T05:06:14;51.08;;;26.27;;
51312;SDS011;37397;53.226;10.400;2024-01-11T05:08:42;51.55;;;24.88;;
51312;SDS011;37397;53.226;10.400;2024-01-11T05:11:16;49.40;;;26.33;;
51312;SDS011;37397;53.226;10.400;2024-01-11T05:13:44;50.10;;;24.85;;
51312;SDS011;37397;53.226;10.400;2024-01-11T05:16:21;52.42;;;26.33;;
51312;SDS011;37397;53.226;10.400;2024-01-11T05:18:56;52.97;;;25.48;;
51312;SDS011;37397;53.226;10.400;2024-01-11T05:21:23;47.22;;;25.73;;
51312;SDS011;37397;53.226;10.400;2024-01-11T05:23:52;52.03;;;26.83;;
51312;SDS011;37397;53.226;10.400;2024-01-11T05:26:19;52.17;;;26.70;;
51312;SDS011;37397;53.226;10.400;2024-01-11T05:28:46;56.88;;;27.85;;
51312;SDS011;37397;53.226;10.400;2024-01-11T05:31:13;54.15;;;27.92;;
51312;SDS011;37397;53.226;10.400;2024-01-11T05:33:41;54.05;;;26.17;;
51312;SDS011;37397;53.226;10.400;2024-01-11T05:36:09;55.47;;;27.35;;
51312;SDS011;37397;53.226;10.400;2024-01-11T05:38:35;53.55;;;27.25;;
51312;SDS011;37397;53.226;10.400;2024-01-11T05:41:05;55.78;;;28.80;;
51312;SDS011;37397;53.226;10.400;2024-01-11T05:43:32;59.65;;;27.33;;
51312;SDS011;37397;53.226;10.400;2024-01-11T05:45:58;56.22;;;28.77;;
51312;SDS011;37397;53.226;10.400;2024-01-11T05:48:25;56.22;;;27.65;;
51312;SDS011;37397;53.226;10.400;2024-01-11T05:50:51;54.20;;;26.88;;
51312;SDS011;37397;53.226;10.400;2024-01-11T05:53:18;56.03;;;27.35;;
51312;SDS011;37397;53.226;10.400;2024-01-11T05:55:47;60.03;;;29.73;;
51312;SDS011;37397;53.226;10.400;2024-01-11T05:58:14;61.53;;;29.83;;
51312;SDS011;37397;53.226;10.400;2024-01-11T06:00:41;57.53;;;28.88;;
51312;SDS011;37397;53.226;10.400;2024-01-11T06:03:08;60.15;;;28.73;;
51312;SDS011;37397;53.226;10.400;2024-01-11T06:05:34;58.53;;;28.85;;
51312;SDS011;37397;53.226;10.400;2024-01-11T06:08:01;57.80;;;27.60;;
51312;SDS011;37397;53.226;10.400;2024-01-11T06:10:28;59.08;;;29.10;;
51312;SDS011;37397;53.226;10.400;2024-01-11T06:12:54;58.30;;;28.85;;
51312;SDS011;37397;53.226;10.400;2024-01-11T06:15:22;60.80;;;29.55;;
51312;SDS011;37397;53.226;10.400;2024-01-11T06:17:49;64.97;;;29.70;;
51312;SDS011;37397;53.226;10.400;2024-01-11T06:20:16;58.83;;;30.33;;
51312;SDS011;37397;53.226;10.400;2024-01-11T06:22:42;59.17;;;28.90;;
51312;SDS011;37397;53.226;10.400;2024-01-11T06:25:34;67.00;;;30.77;;
51312;SDS011;37397;53.226;10.400;2024-01-11T06:28:02;62.42;;;29.35;;
51312;SDS011;37397;53.226;10.400;2024-01-11T06:30:30;61.25;;;29.58;;
51312;SDS011;37397;53.226;10.400;2024-01-11T06:32:56;69.22;;;30.98;;
51312;SDS011;37397;53.226;10.400;2024-01-11T06:35:23;66.97;;;31.98;;
51312;SDS011;37397;53.226;10.400;2024-01-11T06:37:49;65.95;;;30.67;;
51312;SDS011;37397;53.226;10.400;2024-01-11T06:40:16;67.97;;;31.13;;
51312;SDS011;37397;53.226;10.400;2024-01-11T06:42:42;66.45;;;29.17;;
51312;SDS011;37397;53.226;10.400;2024-01-11T06:45:09;67.03;;;31.88;;
51312;SDS011;37397;53.226;10.400;2024-01-11T06:47:35;69.40;;;32.22;;
51312;SDS011;37397;53.226;10.400;2024-01-11T06:50:02;65.97;;;31.35;;
51312;SDS011;37397;53.226;10.400;2024-01-11T06:52:29;68.47;;;31.23;;
51312;SDS011;37397;53.226;10.400;2024-01-11T06:54:55;69.05;;;31.60;;
51312;SDS011;37397;53.226;10.400;2024-01-11T06:57:22;74.05;;;32.72;;
51312;SDS011;37397;53.226;10.400;2024-01-11T06:59:49;74.05;;;33.28;;
51312;SDS011;37397;53.226;10.400;2024-01-11T07:02:16;73.30;;;32.83;;
51312;SDS011;37397;53.226;10.400;2024-01-11T07:04:44;68.95;;;32.70;;
51312;SDS011;37397;53.226;10.400;2024-01-11T07:07:11;69.45;;;32.25;;
51312;SDS011;37397;53.226;10.400;2024-01-11T07:09:37;73.97;;;31.88;;
51312;SDS011;37397;53.226;10.400;2024-01-11T07:12:05;70.72;;;32.53;;
51312;SDS011;37397;53.226;10.400;2024-01-11T07:14:32;73.10;;;32.90;;
51312;SDS011;37397;53.226;10.400;2024-01-11T07:16:58;77.50;;;33.42;;
51312;SDS011;37397;53.226;10.400;2024-01-11T07:19:25;73.65;;;32.55;;
51312;SDS011;37397;53.226;10.400;2024-01-11T07:21:52;74.13;;;32.75;;
51312;SDS011;37397;53.226;10.400;2024-01-11T07:24:19;64.53;;;30.95;;
51312;SDS011;37397;53.226;10.400;2024-01-11T07:26:45;73.50;;;33.15;;
51312;SDS011;37397;53.226;10.400;2024-01-11T07:29:12;75.05;;;33.10;;
51312;SDS011;37397;53.226;10.400;2024-01-11T07:31:39;73.25;;;32.45;;
51312;SDS011;37397;53.226;10.400;2024-01-11T07:34:05;72.45;;;32.75;;
51312;SDS011;37397;53.226;10.400;2024-01-11T07:36:32;72.85;;;33.17;;
51312;SDS011;37397;53.226;10.400;2024-01-11T07:38:58;74.70;;;31.48;;
51312;SDS011;37397;53.226;10.400;2024-01-11T07:41:25;72.43;;;33.67;;
51312;SDS011;37397;53.226;10.400;2024-01-11T07:43:51;71.35;;;31.95;;
51312;SDS011;37397;53.226;10.400;2024-01-11T07:46:20;79.15;;;34.08;;
51312;SDS011;37397;53.226;10.400;2024-01-11T07:49:02;78.88;;;34.05;;
51312;SDS011;37397;53.226;10.400;2024-01-11T07:51:29;82.75;;;34.88;;
51312;SDS011;37397;53.226;10.400;2024-01-11T07:53:55;81.75;;;35.90;;
51312;SDS011;37397;53.226;10.400;2024-01-11T07:56:22;78.10;;;34.53;;
51312;SDS011;37397;53.226;10.400;2024-01-11T07:58:49;77.68;;;34.58;;
51312;SDS011;37397;53.226;10.400;2024-01-11T08:01:16;81.93;;;35.85;;
51312;SDS011;37397;53.226;10.400;2024-01-11T08:03:43;78.47;;;33.85;;
51312;SDS011;37397;53.226;10.400;2024-01-11T08:06:13;80.13;;;34.25;;
51312;SDS011;37397;53.226;10.400;2024-01-11T08:08:40;81.03;;;34.10;;
51312;SDS011;37397;53.226;10.400;2024-01-11T08:11:07;77.80;;;35.55;;
51312;SDS011;37397;53.226;10.400;2024-01-11T08:13:33;77.63;;;33.92;;
51312;SDS011;37397;53.226;10.400;2024-01-11T08:16:01;78.40;;;32.75;;
51312;SDS011;37397;53.226;10.400;2024-01-11T08:18:30;68.90;;;30.30;;
51312;SDS011;37397;53.226;10.400;2024-01-11T08:20:57;72.35;;;30.42;;
51312;SDS011;37397;53.226;10.400;2024-01-11T08:23:24;72.32;;;32.13;;
51312;SDS011;37397;53.226;10.400;2024-01-11T08:25:51;76.25;;;31.02;;
51312;SDS011;37397;53.226;10.400;2024-01-11T08:28:19;72.97;;;31.90;;
51312;SDS011;37397;53.226;10.400;2024-01-11T08:30:46;73.43;;;31.02;;
51312;SDS011;37397;53.226;10.400;2024-01-11T08:33:13;73.80;;;32.17;;
51312;SDS011;37397;53.226;10.400;2024-01-11T08:35:40;70.53;;;30.48;;
51312;SDS011;37397;53.226;10.400;2024-01-11T08:38:08;69.35;;;30.27;;
51312;SDS011;37397;53.226;10.400;2024-01-11T08:40:35;72.35;;;31.92;;
51312;SDS011;37397;53.226;10.400;2024-01-11T08:43:02;68.43;;;30.88;;
51312;SDS011;37397;53.226;10.400;2024-01-11T08:45:29;69.60;;;29.88;;
51312;SDS011;37397;53.226;10.400;2024-01-11T08:47:57;72.03;;;31.48;;
51312;SDS011;37397;53.226;10.400;2024-01-11T08:50:24;68.68;;;29.45;;
51312;SDS011;37397;53.226;10.400;2024-01-11T08:52:52;68.55;;;29.30;;
51312;SDS011;37397;53.226;10.400;2024-01-11T08:55:21;67.20;;;29.08;;
51312;SDS011;37397;53.226;10.400;2024-01-11T08:57:48;65.60;;;27.83;;
51312;SDS011;37397;53.226;10.400;2024-01-11T09:00:14;65.80;;;29.50;;
51312;SDS011;37397;53.226;10.400;2024-01-11T09:02:45;65.78;;;27.38;;
51312;SDS011;37397;53.226;10.400;2024-01-11T09:05:15;67.13;;;28.90;;
51312;SDS011;37397;53.226;10.400;2024-01-11T09:07:43;65.70;;;29.15;;
51312;SDS011;37397;53.226;10.400;2024-01-11T09:10:09;64.88;;;27.70;;
51312;SDS011;37397;53.226;10.400;2024-01-11T09:12:37;63.55;;;28.83;;
51312;SDS011;37397;53.226;10.400;2024-01-11T09:15:04;61.13;;;26.55;;
51312;SDS011;37397;53.226;10.400;2024-01-11T09:17:32;64.95;;;26.95;;
51312;SDS011;37397;53.226;10.400;2024-01-11T09:19:59;62.50;;;28.33;;
51312;SDS011;37397;53.226;10.400;2024-01-11T09:22:25;67.03;;;28.13;;
51312;SDS011;37397;53.226;10.400;2024-01-11T09:24:52;61.60;;;26.77;;
51312;SDS011;37397;53.226;10.400;2024-01-11T09:27:18;60.60;;;27.25;;
51312;SDS011;37397;53.226;10.400;2024-01-11T09:29:45;61.60;;;26.02;;
51312;SDS011;37397;53.226;10.400;2024-01-11T09:32:12;63.15;;;26.80;;
51312;SDS011;37397;53.226;10.400;2024-01-11T09:34:39;64.28;;;25.42;;
51312;SDS011;37397;53.226;10.400;2024-01-11T09:37:06;66.22;;;26.35;;
51312;SDS011;37397;53.226;10.400;2024-01-11T09:39:32;55.55;;;24.15;;
51312;SDS011;37397;53.226;10.400;2024-01-11T09:42:08;56.55;;;24.40;;
51312;SDS011;37397;53.226;10.400;2024-01-11T09:44:36;58.03;;;24.70;;
51312;SDS011;37397;53.226;10.400;2024-01-11T09:47:08;59.13;;;24.50;;
51312;SDS011;37397;53.226;10.400;2024-01-11T09:49:40;55.83;;;23.80;;
51312;SDS011;37397;53.226;10.400;2024-01-11T09:52:08;53.88;;;22.92;;
51312;SDS011;37397;53.226;10.400;2024-01-11T09:54:37;59.97;;;25.98;;
51312;SDS011;37397;53.226;10.400;2024-01-11T09:57:04;48.72;;;21.50;;
51312;SDS011;37397;53.226;10.400;2024-01-11T09:59:32;55.08;;;24.05;;
51312;SDS011;37397;53.226;10.400;2024-01-11T10:02:02;56.28;;;23.38;;
51312;SDS011;37397;53.226;10.400;2024-01-11T10:04:29;52.92;;;22.85;;
51312;SDS011;37397;53.226;10.400;2024-01-11T10:06:56;44.78;;;20.98;;
51312;SDS011;37397;53.226;10.400;2024-01-11T10:09:23;49.78;;;20.85;;
51312;SDS011;37397;53.226;10.400;2024-01-11T10:11:50;48.05;;;22.17;;
51312;SDS011;37397;53.226;10.400;2024-01-11T10:14:17;45.17;;;19.88;;
51312;SDS011;37397;53.226;10.400;2024-01-11T10:16:44;47.65;;;20.92;;
51312;SDS011;37397;53.226;10.400;2024-01-11T10:19:12;44.85;;;19.77;;
51312;SDS011;37397;53.226;10.400;2024-01-11T10:21:40;46.88;;;19.80;;
51312;SDS011;37397;53.226;10.400;2024-01-11T10:24:07;45.67;;;19.70;;
51312;SDS011;37397;53.226;10.400;2024-01-11T10:26:34;44.10;;;18.80;;
51312;SDS011;37397;53.226;10.400;2024-01-11T10:29:02;48.38;;;19.48;;
51312;SDS011;37397;53.226;10.400;2024-01-11T10:31:29;47.65;;;19.23;;
51312;SDS011;37397;53.226;10.400;2024-01-11T10:33:57;44.70;;;18.90;;
51312;SDS011;37397;53.226;10.400;2024-01-11T10:36:24;41.20;;;17.65;;
51312;SDS011;37397;53.226;10.400;2024-01-11T10:38:50;44.70;;;18.35;;
51312;SDS011;37397;53.226;10.400;2024-01-11T10:41:19;40.95;;;18.55;;
51312;SDS011;37397;53.226;10.400;2024-01-11T10:43:46;45.92;;;19.85;;
51312;SDS011;37397;53.226;10.400;2024-01-11T10:46:15;46.95;;;20.67;;
51312;SDS011;37397;53.226;10.400;2024-01-11T10:48:48;49.25;;;20.77;;
51312;SDS011;37397;53.226;10.400;2024-01-11T10:51:21;48.53;;;21.23;;
51312;SDS011;37397;53.226;10.400;2024-01-11T10:53:50;48.42;;;19.98;;
51312;SDS011;37397;53.226;10.400;2024-01-11T10:56:18;49.92;;;21.33;;
51312;SDS011;37397;53.226;10.400;2024-01-11T10:58:46;48.25;;;19.80;;
51312;SDS011;37397;53.226;10.400;2024-01-11T11:01:13;42.40;;;20.08;;
51312;SDS011;37397;53.226;10.400;2024-01-11T11:03:40;47.70;;;19.83;;
51312;SDS011;37397;53.226;10.400;2024-01-11T11:06:11;46.22;;;20.00;;
51312;SDS011;37397;53.226;10.400;2024-01-11T11:08:39;49.42;;;22.02;;
51312;SDS011;37397;53.226;10.400;2024-01-11T11:11:06;47.17;;;20.83;;
51312;SDS011;37397;53.226;10.400;2024-01-11T11:13:34;49.42;;;19.50;;
51312;SDS011;37397;53.226;10.400;2024-01-11T11:16:01;46.50;;;20.00;;
51312;SDS011;37397;53.226;10.400;2024-01-11T11:18:31;45.35;;;19.73;;
51312;SDS011;37397;53.226;10.400;2024-01-11T11:21:00;48.35;;;20.63;;
51312;SDS011;37397;53.226;10.400;2024-01-11T11:23:26;42.35;;;17.85;;
51312;SDS011;37397;53.226;10.400;2024-01-11T11:25:53;42.40;;;18.75;;
51312;SDS011;37397;53.226;10.400;2024-01-11T11:28:24;46.10;;;19.10;;
51312;SDS011;37397;53.226;10.400;2024-01-11T11:30:52;44.15;;;19.35;;
51312;SDS011;37397;53.226;10.400;2024-01-11T11:33:20;42.03;;;18.60;;
51312;SDS011;37397;53.226;10.400;2024-01-11T11:35:48;43.10;;;18.70;;
51312;SDS011;37397;53.226;10.400;2024-01-11T11:38:22;45.47;;;18.63;;
51312;SDS011;37397;53.226;10.400;2024-01-11T11:40:51;44.88;;;20.33;;
51312;SDS011;37397;53.226;10.400;2024-01-11T11:43:20;46.70;;;18.38;;
51312;SDS011;37397;53.226;10.400;2024-01-11T11:45:48;42.90;;;18.38;;
51312;SDS011;37397;53.226;10.400;2024-01-11T11:53:35;45.47;;;19.05;;
51312;SDS011;37397;53.226;10.400;2024-01-11T11:56:03;41.20;;;18.02;;
51312;SDS011;37397;53.226;10.400;2024-01-11T11:58:30;43.83;;;19.05;;
51312;SDS011;37397;53.226;10.400;2024-01-11T12:00:58;45.63;;;17.50;;
51312;SDS011;37397;53.226;10.400;2024-01-11T12:03:29;46.67;;;19.55;;
51312;SDS011;37397;53.226;10.400;2024-01-11T12:05:59;42.55;;;16.75;;
51312;SDS011;37397;53.226;10.400;2024-01-11T12:08:27;42.05;;;17.63;;
51312;SDS011;37397;53.226;10.400;2024-01-11T12:10:54;46.97;;;18.08;;
51312;SDS011;37397;53.226;10.400;2024-01-11T12:13:21;38.92;;;17.65;;
51312;SDS011;37397;53.226;10.400;2024-01-11T12:15:48;44.85;;;18.20;;
51312;SDS011;37397;53.226;10.400;2024-01-11T12:18:15;43.28;;;18.42;;
51312;SDS011;37397;53.226;10.400;2024-01-11T12:20:42;36.95;;;16.05;;
51312;SDS011;37397;53.226;10.400;2024-01-11T12:23:09;41.13;;;16.67;;
51312;SDS011;37397;53.226;10.400;2024-01-11T12:25:36;40.30;;;15.68;;
51312;SDS011;37397;53.226;10.400;2024-01-11T12:28:03;45.45;;;18.65;;
51312;SDS011;37397;53.226;10.400;2024-01-11T12:30:29;42.45;;;19.08;;
51312;SDS011;37397;53.226;10.400;2024-01-11T12:32:56;37.45;;;17.23;;
51312;SDS011;37397;53.226;10.400;2024-01-11T12:35:23;43.22;;;17.10;;
51312;SDS011;37397;53.226;10.400;2024-01-11T12:37:54;36.58;;;15.38;;
51312;SDS011;37397;53.226;10.400;2024-01-11T12:40:21;36.53;;;15.77;;
51312;SDS011;37397;53.226;10.400;2024-01-11T12:42:48;39.65;;;16.25;;
51312;SDS011;37397;53.226;10.400;2024-01-11T12:45:16;39.05;;;17.20;;
51312;SDS011;37397;53.226;10.400;2024-01-11T12:47:43;38.08;;;16.73;;
51312;SDS011;37397;53.226;10.400;2024-01-11T12:50:13;35.10;;;14.80;;
51312;SDS011;37397;53.226;10.400;2024-01-11T12:52:40;38.38;;;17.67;;
51312;SDS011;37397;53.226;10.400;2024-01-11T12:55:08;37.90;;;16.35;;
51312;SDS011;37397;53.226;10.400;2024-01-11T12:57:44;40.97;;;16.73;;
51312;SDS011;37397;53.226;10.400;2024-01-11T13:00:11;36.03;;;16.25;;
51312;SDS011;37397;53.226;10.400;2024-01-11T13:02:39;41.08;;;16.08;;
51312;SDS011;37397;53.226;10.400;2024-01-11T13:05:06;38.80;;;15.90;;
51312;SDS011;37397;53.226;10.400;2024-01-11T13:07:36;33.10;;;14.80;;
51312;SDS011;37397;53.226;10.400;2024-01-11T13:10:03;37.97;;;17.45;;
51312;SDS011;37397;53.226;10.400;2024-01-11T13:12:30;37.03;;;16.92;;
51312;SDS011;37397;53.226;10.400;2024-01-11T13:14:57;38.53;;;17.58;;
51312;SDS011;37397;53.226;10.400;2024-01-11T13:17:24;37.38;;;17.77;;
51312;SDS011;37397;53.226;10.400;2024-01-11T13:19:51;37.40;;;15.63;;
51312;SDS011;37397;53.226;10.400;2024-01-11T13:22:18;40.05;;;16.75;;
51312;SDS011;37397;53.226;10.400;2024-01-11T13:24:44;35.83;;;17.33;;
51312;SDS011;37397;53.226;10.400;2024-01-11T13:27:11;33.42;;;16.08;;
51312;SDS011;37397;53.226;10.400;2024-01-11T13:29:38;34.63;;;15.98;;
51312;SDS011;37397;53.226;10.400;2024-01-11T13:32:04;37.88;;;17.38;;
51312;SDS011;37397;53.226;10.400;2024-01-11T13:34:32;37.95;;;16.40;;
51312;SDS011;37397;53.226;10.400;2024-01-11T13:36:58;36.45;;;16.58;;
51312;SDS011;37397;53.226;10.400;2024-01-11T13:39:26;43.63;;;19.15;;
51312;SDS011;37397;53.226;10.400;2024-01-11T13:41:52;41.25;;;18.92;;
51312;SDS011;37397;53.226;10.400;2024-01-11T13:44:19;39.88;;;17.80;;
51312;SDS011;37397;53.226;10.400;2024-01-11T13:46:50;45.42;;;19.65;;
51312;SDS011;37397;53.226;10.400;2024-01-11T13:49:16;36.13;;;16.85;;
51312;SDS011;37397;53.226;10.400;2024-01-11T13:51:43;37.95;;;17.15;;
51312;SDS011;37397;53.226;10.400;2024-01-11T13:54:25;41.90;;;17.17;;
51312;SDS011;37397;53.226;10.400;2024-01-11T13:56:52;42.22;;;18.83;;
51312;SDS011;37397;53.226;10.400;2024-01-11T13:59:19;41.63;;;18.27;;
51312;SDS011;37397;53.226;10.400;2024-01-11T14:01:46;38.67;;;16.98;;
51312;SDS011;37397;53.226;10.400;2024-01-11T14:04:13;37.17;;;17.63;;
51312;SDS011;37397;53.226;10.400;2024-01-11T14:06:43;43.97;;;19.45;;
51312;SDS011;37397;53.226;10.400;2024-01-11T14:09:10;43.47;;;17.77;;
51312;SDS011;37397;53.226;10.400;2024-01-11T14:11:38;37.22;;;16.88;;
51312;SDS011;37397;53.226;10.400;2024-01-11T14:14:05;40.40;;;17.35;;
51312;SDS011;37397;53.226;10.400;2024-01-11T14:16:33;40.03;;;18.38;;